sensor_id;sensor_type;location;lat;lon;timestamp;temperature;humidity
41471;DHT22;27211;51.220;5.308;2023-03-26T00:00:24;10.10;99.90
41471;DHT22;27211;51.220;5.308;2023-03-26T00:02:49;10.00;99.90
41471;DHT22;27211;51.220;5.308;2023-03-26T00:05:15;9.90;99.90
41471;DHT22;27211;51.220;5.308;2023-03-26T00:07:41;9.90;99.90
41471;DHT22;27211;51.220;5.308;2023-03-26T00:10:06;9.80;99.90
41471;DHT22;27211;51.220;5.308;2023-03-26T00:12:34;9.70;99.90
41471;DHT22;27211;51.220;5.308;2023-03-26T00:14:59;9.60;99.90
41471;DHT22;27211;51.220;5.308;2023-03-26T00:17:28;9.50;99.90
41471;DHT22;27211;51.220;5.308;2023-03-26T00:19:54;9.80;99.90
41471;DHT22;27211;51.220;5.308;2023-03-26T00:22:21;9.70;99.90
41471;DHT22;27211;51.220;5.308;2023-03-26T00:24:47;9.70;99.90
41471;DHT22;27211;51.220;5.308;2023-03-26T00:27:15;9.60;99.90
41471;DHT22;27211;51.220;5.308;2023-03-26T00:29:40;9.50;99.90
41471;DHT22;27211;51.220;5.308;2023-03-26T00:32:06;9.60;99.90
41471;DHT22;27211;51.220;5.308;2023-03-26T00:34:31;9.70;99.90
41471;DHT22;27211;51.220;5.308;2023-03-26T00:36:58;10.00;99.90
41471;DHT22;27211;51.220;5.308;2023-03-26T00:39:27;10.00;99.90
41471;DHT22;27211;51.220;5.308;2023-03-26T00:41:53;9.90;99.90
41471;DHT22;27211;51.220;5.308;2023-03-26T00:44:19;9.80;99.90
41471;DHT22;27211;51.220;5.308;2023-03-26T00:46:45;10.00;99.90
41471;DHT22;27211;51.220;5.308;2023-03-26T00:49:11;10.00;99.90
41471;DHT22;27211;51.220;5.308;2023-03-26T00:51:39;9.70;99.90
41471;DHT22;27211;51.220;5.308;2023-03-26T00:54:05;10.00;99.90
41471;DHT22;27211;51.220;5.308;2023-03-26T00:56:32;10.10;99.90
41471;DHT22;27211;51.220;5.308;2023-03-26T00:58:58;9.90;99.90
41471;DHT22;27211;51.220;5.308;2023-03-26T01:01:25;9.90;99.90
41471;DHT22;27211;51.220;5.308;2023-03-26T01:03:55;9.80;99.90
41471;DHT22;27211;51.220;5.308;2023-03-26T01:08:52;9.80;99.90
41471;DHT22;27211;51.220;5.308;2023-03-26T01:11:23;10.10;99.90
41471;DHT22;27211;51.220;5.308;2023-03-26T01:13:53;10.10;99.90
41471;DHT22;27211;51.220;5.308;2023-03-26T01:16:24;10.00;99.90
41471;DHT22;27211;51.220;5.308;2023-03-26T01:18:51;9.90;99.90
41471;DHT22;27211;51.220;5.308;2023-03-26T01:21:20;9.80;99.90
41471;DHT22;27211;51.220;5.308;2023-03-26T01:26:23;9.90;99.90
41471;DHT22;27211;51.220;5.308;2023-03-26T01:28:53;9.80;99.90
41471;DHT22;27211;51.220;5.308;2023-03-26T01:33:51;9.70;99.90
41471;DHT22;27211;51.220;5.308;2023-03-26T01:38:52;9.50;99.90
41471;DHT22;27211;51.220;5.308;2023-03-26T01:41:26;9.40;99.90
41471;DHT22;27211;51.220;5.308;2023-03-26T01:46:22;9.60;99.90
41471;DHT22;27211;51.220;5.308;2023-03-26T01:48:48;9.80;99.90
41471;DHT22;27211;51.220;5.308;2023-03-26T01:51:23;9.90;99.90
41471;DHT22;27211;51.220;5.308;2023-03-26T01:53:49;10.20;99.90
41471;DHT22;27211;51.220;5.308;2023-03-26T01:56:20;10.00;99.90
41471;DHT22;27211;51.220;5.308;2023-03-26T02:06:39;9.70;99.90
41471;DHT22;27211;51.220;5.308;2023-03-26T02:09:09;10.10;99.90
41471;DHT22;27211;51.220;5.308;2023-03-26T02:11:36;10.20;99.90
41471;DHT22;27211;51.220;5.308;2023-03-26T02:14:03;10.10;99.90
41471;DHT22;27211;51.220;5.308;2023-03-26T02:16:30;10.00;99.90
41471;DHT22;27211;51.220;5.308;2023-03-26T02:18:56;9.90;99.90
41471;DHT22;27211;51.220;5.308;2023-03-26T02:21:23;9.80;99.90
41471;DHT22;27211;51.220;5.308;2023-03-26T02:23:54;9.80;99.90
41471;DHT22;27211;51.220;5.308;2023-03-26T02:26:27;9.60;99.90
41471;DHT22;27211;51.220;5.308;2023-03-26T02:28:59;9.60;99.90
41471;DHT22;27211;51.220;5.308;2023-03-26T02:31:26;9.70;99.90
41471;DHT22;27211;51.220;5.308;2023-03-26T02:33:52;9.80;99.90
41471;DHT22;27211;51.220;5.308;2023-03-26T02:36:18;9.90;99.90
41471;DHT22;27211;51.220;5.308;2023-03-26T02:38:46;9.80;99.90
41471;DHT22;27211;51.220;5.308;2023-03-26T02:41:12;9.90;99.90
41471;DHT22;27211;51.220;5.308;2023-03-26T02:43:38;9.90;99.90
41471;DHT22;27211;51.220;5.308;2023-03-26T02:46:04;9.90;99.90
41471;DHT22;27211;51.220;5.308;2023-03-26T02:48:29;9.70;99.90
41471;DHT22;27211;51.220;5.308;2023-03-26T02:50:56;9.70;99.90
41471;DHT22;27211;51.220;5.308;2023-03-26T02:53:21;9.70;99.90
41471;DHT22;27211;51.220;5.308;2023-03-26T02:55:48;9.80;99.90
41471;DHT22;27211;51.220;5.308;2023-03-26T02:58:14;10.10;99.90
41471;DHT22;27211;51.220;5.308;2023-03-26T03:00:43;10.00;99.90
41471;DHT22;27211;51.220;5.308;2023-03-26T03:03:08;10.00;99.90
41471;DHT22;27211;51.220;5.308;2023-03-26T03:05:34;10.00;99.90
41471;DHT22;27211;51.220;5.308;2023-03-26T03:08:02;10.00;99.90
41471;DHT22;27211;51.220;5.308;2023-03-26T03:10:28;9.80;99.90
41471;DHT22;27211;51.220;5.308;2023-03-26T03:12:57;9.70;99.90
41471;DHT22;27211;51.220;5.308;2023-03-26T03:15:22;10.00;99.90
41471;DHT22;27211;51.220;5.308;2023-03-26T03:17:48;10.50;99.90
41471;DHT22;27211;51.220;5.308;2023-03-26T03:20:13;10.10;99.90
41471;DHT22;27211;51.220;5.308;2023-03-26T03:22:41;9.80;99.90
41471;DHT22;27211;51.220;5.308;2023-03-26T03:25:06;9.70;99.90
41471;DHT22;27211;51.220;5.308;2023-03-26T03:27:42;9.70;99.90
41471;DHT22;27211;51.220;5.308;2023-03-26T03:30:08;9.80;99.90
41471;DHT22;27211;51.220;5.308;2023-03-26T03:32:35;9.90;99.90
41471;DHT22;27211;51.220;5.308;2023-03-26T03:35:01;10.40;99.90
41471;DHT22;27211;51.220;5.308;2023-03-26T03:37:27;10.60;99.90
41471;DHT22;27211;51.220;5.308;2023-03-26T03:39:53;10.70;99.90
41471;DHT22;27211;51.220;5.308;2023-03-26T03:42:19;10.40;99.90
41471;DHT22;27211;51.220;5.308;2023-03-26T03:44:45;10.20;99.90
41471;DHT22;27211;51.220;5.308;2023-03-26T03:47:10;10.30;99.90
41471;DHT22;27211;51.220;5.308;2023-03-26T03:49:38;10.20;99.90
41471;DHT22;27211;51.220;5.308;2023-03-26T03:52:04;10.20;99.90
41471;DHT22;27211;51.220;5.308;2023-03-26T03:54:30;10.30;99.90
41471;DHT22;27211;51.220;5.308;2023-03-26T03:56:56;10.10;99.90
41471;DHT22;27211;51.220;5.308;2023-03-26T03:59:22;9.80;99.90
41471;DHT22;27211;51.220;5.308;2023-03-26T04:01:48;9.50;99.90
41471;DHT22;27211;51.220;5.308;2023-03-26T04:04:15;9.40;99.90
41471;DHT22;27211;51.220;5.308;2023-03-26T04:06:41;9.30;99.90
41471;DHT22;27211;51.220;5.308;2023-03-26T04:09:06;9.20;99.90
41471;DHT22;27211;51.220;5.308;2023-03-26T04:11:35;9.00;99.90
41471;DHT22;27211;51.220;5.308;2023-03-26T04:14:01;8.90;99.90
41471;DHT22;27211;51.220;5.308;2023-03-26T04:16:27;8.90;99.90
41471;DHT22;27211;51.220;5.308;2023-03-26T04:18:53;9.00;99.90
41471;DHT22;27211;51.220;5.308;2023-03-26T04:21:18;8.90;99.90
41471;DHT22;27211;51.220;5.308;2023-03-26T04:23:44;8.90;99.90
41471;DHT22;27211;51.220;5.308;2023-03-26T04:26:12;8.90;99.90
41471;DHT22;27211;51.220;5.308;2023-03-26T04:28:47;9.00;99.90
41471;DHT22;27211;51.220;5.308;2023-03-26T04:31:17;9.10;99.90
41471;DHT22;27211;51.220;5.308;2023-03-26T04:33:48;9.20;99.90
41471;DHT22;27211;51.220;5.308;2023-03-26T04:36:18;9.30;99.90
41471;DHT22;27211;51.220;5.308;2023-03-26T04:38:46;9.30;99.90
41471;DHT22;27211;51.220;5.308;2023-03-26T04:41:16;9.30;99.90
41471;DHT22;27211;51.220;5.308;2023-03-26T04:43:42;9.30;99.90
41471;DHT22;27211;51.220;5.308;2023-03-26T04:46:15;9.20;99.90
41471;DHT22;27211;51.220;5.308;2023-03-26T04:48:43;9.20;99.90
41471;DHT22;27211;51.220;5.308;2023-03-26T04:51:09;9.00;99.90
41471;DHT22;27211;51.220;5.308;2023-03-26T04:53:52;9.00;99.90
41471;DHT22;27211;51.220;5.308;2023-03-26T04:56:24;9.10;99.90
41471;DHT22;27211;51.220;5.308;2023-03-26T04:58:58;9.00;99.90
41471;DHT22;27211;51.220;5.308;2023-03-26T05:01:24;9.00;99.90
41471;DHT22;27211;51.220;5.308;2023-03-26T05:03:52;9.10;99.90
41471;DHT22;27211;51.220;5.308;2023-03-26T05:06:18;9.00;99.90
41471;DHT22;27211;51.220;5.308;2023-03-26T05:08:44;9.00;99.90
41471;DHT22;27211;51.220;5.308;2023-03-26T05:11:09;9.00;99.90
41471;DHT22;27211;51.220;5.308;2023-03-26T05:13:36;9.00;99.90
41471;DHT22;27211;51.220;5.308;2023-03-26T05:16:02;8.90;99.90
41471;DHT22;27211;51.220;5.308;2023-03-26T05:18:27;8.90;99.90
41471;DHT22;27211;51.220;5.308;2023-03-26T05:20:58;8.90;99.90
41471;DHT22;27211;51.220;5.308;2023-03-26T05:23:23;9.00;99.90
41471;DHT22;27211;51.220;5.308;2023-03-26T05:25:49;9.00;99.90
41471;DHT22;27211;51.220;5.308;2023-03-26T05:28:16;9.00;99.90
41471;DHT22;27211;51.220;5.308;2023-03-26T05:30:45;9.20;99.90
41471;DHT22;27211;51.220;5.308;2023-03-26T05:33:11;9.60;99.90
41471;DHT22;27211;51.220;5.308;2023-03-26T05:35:37;9.60;99.90
41471;DHT22;27211;51.220;5.308;2023-03-26T05:38:02;9.40;99.90
41471;DHT22;27211;51.220;5.308;2023-03-26T05:40:28;9.30;99.90
41471;DHT22;27211;51.220;5.308;2023-03-26T05:42:54;9.10;99.90
41471;DHT22;27211;51.220;5.308;2023-03-26T05:45:20;9.10;99.90
41471;DHT22;27211;51.220;5.308;2023-03-26T05:47:46;9.20;99.90
41471;DHT22;27211;51.220;5.308;2023-03-26T05:50:14;9.10;99.90
41471;DHT22;27211;51.220;5.308;2023-03-26T05:52:40;9.20;99.90
41471;DHT22;27211;51.220;5.308;2023-03-26T05:55:06;9.20;99.90
41471;DHT22;27211;51.220;5.308;2023-03-26T05:57:32;9.20;99.90
41471;DHT22;27211;51.220;5.308;2023-03-26T06:00:00;9.50;99.90
41471;DHT22;27211;51.220;5.308;2023-03-26T06:02:26;9.40;99.90
41471;DHT22;27211;51.220;5.308;2023-03-26T06:04:53;9.50;99.90
41471;DHT22;27211;51.220;5.308;2023-03-26T06:07:21;9.50;99.90
41471;DHT22;27211;51.220;5.308;2023-03-26T06:09:46;9.60;99.90
41471;DHT22;27211;51.220;5.308;2023-03-26T06:12:13;9.60;99.90
41471;DHT22;27211;51.220;5.308;2023-03-26T06:14:39;9.60;99.90
41471;DHT22;27211;51.220;5.308;2023-03-26T06:17:07;9.60;99.90
41471;DHT22;27211;51.220;5.308;2023-03-26T06:19:33;9.70;99.90
41471;DHT22;27211;51.220;5.308;2023-03-26T06:21:58;9.60;99.90
41471;DHT22;27211;51.220;5.308;2023-03-26T15:11:14;11.50;99.90
41471;DHT22;27211;51.220;5.308;2023-03-26T15:13:52;11.60;99.90
41471;DHT22;27211;51.220;5.308;2023-03-26T15:22:09;11.10;99.90
41471;DHT22;27211;51.220;5.308;2023-03-26T15:24:36;11.30;99.90
41471;DHT22;27211;51.220;5.308;2023-03-26T15:40:46;10.60;99.90
41471;DHT22;27211;51.220;5.308;2023-03-26T15:43:18;10.80;99.90
41471;DHT22;27211;51.220;5.308;2023-03-26T15:50:44;10.70;99.90
41471;DHT22;27211;51.220;5.308;2023-03-26T16:01:26;10.50;99.90
41471;DHT22;27211;51.220;5.308;2023-03-26T16:06:49;10.20;99.90
41471;DHT22;27211;51.220;5.308;2023-03-26T16:17:17;10.30;99.90
41471;DHT22;27211;51.220;5.308;2023-03-26T16:22:15;10.40;99.90
41471;DHT22;27211;51.220;5.308;2023-03-26T16:24:49;10.40;99.90
41471;DHT22;27211;51.220;5.308;2023-03-26T16:27:35;10.40;99.90
41471;DHT22;27211;51.220;5.308;2023-03-26T16:30:07;10.40;99.90
41471;DHT22;27211;51.220;5.308;2023-03-26T16:32:43;10.40;99.90
41471;DHT22;27211;51.220;5.308;2023-03-26T16:45:21;10.30;99.90
41471;DHT22;27211;51.220;5.308;2023-03-26T16:47:59;10.20;99.90
41471;DHT22;27211;51.220;5.308;2023-03-26T16:50:49;10.40;99.90
41471;DHT22;27211;51.220;5.308;2023-03-26T16:55:51;10.40;99.90
41471;DHT22;27211;51.220;5.308;2023-03-26T17:03:38;10.40;99.90
41471;DHT22;27211;51.220;5.308;2023-03-26T17:19:38;10.40;99.90
41471;DHT22;27211;51.220;5.308;2023-03-26T17:25:17;10.10;99.90
41471;DHT22;27211;51.220;5.308;2023-03-26T17:32:51;10.10;99.90
41471;DHT22;27211;51.220;5.308;2023-03-26T17:38:08;9.90;99.90
41471;DHT22;27211;51.220;5.308;2023-03-26T17:40:53;9.70;99.90
41471;DHT22;27211;51.220;5.308;2023-03-26T17:46:03;9.90;99.90
41471;DHT22;27211;51.220;5.308;2023-03-26T17:48:31;9.80;99.90
41471;DHT22;27211;51.220;5.308;2023-03-26T17:53:46;9.70;99.90
41471;DHT22;27211;51.220;5.308;2023-03-26T17:56:15;9.80;99.90
41471;DHT22;27211;51.220;5.308;2023-03-26T17:58:50;9.70;99.90
41471;DHT22;27211;51.220;5.308;2023-03-26T18:01:56;9.60;99.90
41471;DHT22;27211;51.220;5.308;2023-03-26T18:04:23;9.60;99.90
41471;DHT22;27211;51.220;5.308;2023-03-26T18:07:02;9.40;99.90
41471;DHT22;27211;51.220;5.308;2023-03-26T18:09:39;9.20;99.90
41471;DHT22;27211;51.220;5.308;2023-03-26T18:17:26;9.40;99.90
41471;DHT22;27211;51.220;5.308;2023-03-26T18:20:03;9.30;99.90
41471;DHT22;27211;51.220;5.308;2023-03-26T18:22:33;9.30;99.90
41471;DHT22;27211;51.220;5.308;2023-03-26T18:25:01;9.20;99.90
41471;DHT22;27211;51.220;5.308;2023-03-26T18:27:36;9.20;99.90
41471;DHT22;27211;51.220;5.308;2023-03-26T18:30:16;9.10;99.90
41471;DHT22;27211;51.220;5.308;2023-03-26T18:32:49;9.00;99.90
41471;DHT22;27211;51.220;5.308;2023-03-26T18:35:18;8.90;99.90
41471;DHT22;27211;51.220;5.308;2023-03-26T18:37:51;8.90;99.90
41471;DHT22;27211;51.220;5.308;2023-03-26T18:40:23;8.90;99.90
41471;DHT22;27211;51.220;5.308;2023-03-26T18:42:57;9.00;99.90
41471;DHT22;27211;51.220;5.308;2023-03-26T18:45:29;9.00;99.90
41471;DHT22;27211;51.220;5.308;2023-03-26T18:47:58;9.00;99.90
41471;DHT22;27211;51.220;5.308;2023-03-26T18:50:37;9.00;99.90
41471;DHT22;27211;51.220;5.308;2023-03-26T18:53:05;9.10;99.90
41471;DHT22;27211;51.220;5.308;2023-03-26T18:55:34;9.00;99.90
41471;DHT22;27211;51.220;5.308;2023-03-26T19:00:45;8.90;99.90
41471;DHT22;27211;51.220;5.308;2023-03-26T19:03:13;8.80;99.90
41471;DHT22;27211;51.220;5.308;2023-03-26T19:05:42;8.90;99.90
41471;DHT22;27211;51.220;5.308;2023-03-26T19:08:17;8.90;99.90
41471;DHT22;27211;51.220;5.308;2023-03-26T19:10:45;9.00;99.90
41471;DHT22;27211;51.220;5.308;2023-03-26T19:13:14;8.90;99.90
41471;DHT22;27211;51.220;5.308;2023-03-26T19:15:42;8.80;99.90
41471;DHT22;27211;51.220;5.308;2023-03-26T19:18:24;8.70;99.90
41471;DHT22;27211;51.220;5.308;2023-03-26T19:21:01;8.70;99.90
41471;DHT22;27211;51.220;5.308;2023-03-26T19:23:30;8.60;99.90
41471;DHT22;27211;51.220;5.308;2023-03-26T19:25:59;8.70;99.90
41471;DHT22;27211;51.220;5.308;2023-03-26T19:28:29;8.80;99.90
41471;DHT22;27211;51.220;5.308;2023-03-26T19:30:58;8.80;99.90
41471;DHT22;27211;51.220;5.308;2023-03-26T19:33:32;8.60;99.90
41471;DHT22;27211;51.220;5.308;2023-03-26T19:36:13;8.50;99.90
41471;DHT22;27211;51.220;5.308;2023-03-26T19:38:43;8.30;99.90
41471;DHT22;27211;51.220;5.308;2023-03-26T19:41:20;8.40;99.90
41471;DHT22;27211;51.220;5.308;2023-03-26T19:43:48;8.40;99.90
41471;DHT22;27211;51.220;5.308;2023-03-26T19:46:16;8.40;99.90
41471;DHT22;27211;51.220;5.308;2023-03-26T19:48:44;8.20;99.90
41471;DHT22;27211;51.220;5.308;2023-03-26T19:51:29;8.20;99.90
41471;DHT22;27211;51.220;5.308;2023-03-26T19:54:02;8.30;99.90
41471;DHT22;27211;51.220;5.308;2023-03-26T19:56:29;8.30;99.90
41471;DHT22;27211;51.220;5.308;2023-03-26T19:58:57;8.20;99.90
41471;DHT22;27211;51.220;5.308;2023-03-26T20:01:31;8.20;99.90
41471;DHT22;27211;51.220;5.308;2023-03-26T20:04:00;8.10;99.90
41471;DHT22;27211;51.220;5.308;2023-03-26T20:06:28;8.00;99.90
41471;DHT22;27211;51.220;5.308;2023-03-26T20:08:56;8.00;99.90
41471;DHT22;27211;51.220;5.308;2023-03-26T20:11:24;7.90;99.90
41471;DHT22;27211;51.220;5.308;2023-03-26T20:13:56;7.90;99.90
41471;DHT22;27211;51.220;5.308;2023-03-26T20:16:25;7.90;99.90
41471;DHT22;27211;51.220;5.308;2023-03-26T20:18:52;7.90;99.90
41471;DHT22;27211;51.220;5.308;2023-03-26T20:21:22;7.90;99.90
41471;DHT22;27211;51.220;5.308;2023-03-26T20:23:49;7.80;99.90
41471;DHT22;27211;51.220;5.308;2023-03-26T20:26:18;7.90;99.90
41471;DHT22;27211;51.220;5.308;2023-03-26T20:28:48;7.80;99.90
41471;DHT22;27211;51.220;5.308;2023-03-26T20:31:17;7.80;99.90
41471;DHT22;27211;51.220;5.308;2023-03-26T20:33:44;7.80;99.90
41471;DHT22;27211;51.220;5.308;2023-03-26T20:36:12;7.70;99.90
41471;DHT22;27211;51.220;5.308;2023-03-26T20:38:39;7.70;99.90
41471;DHT22;27211;51.220;5.308;2023-03-26T20:41:16;7.70;99.90
41471;DHT22;27211;51.220;5.308;2023-03-26T20:43:44;7.80;99.90
41471;DHT22;27211;51.220;5.308;2023-03-26T20:46:21;7.90;99.90
41471;DHT22;27211;51.220;5.308;2023-03-26T20:48:49;7.70;99.90
41471;DHT22;27211;51.220;5.308;2023-03-26T20:51:20;7.90;99.90
41471;DHT22;27211;51.220;5.308;2023-03-26T20:53:48;7.90;99.90
41471;DHT22;27211;51.220;5.308;2023-03-26T20:56:21;7.80;99.90
41471;DHT22;27211;51.220;5.308;2023-03-26T20:58:49;7.90;99.90
41471;DHT22;27211;51.220;5.308;2023-03-26T21:01:22;7.80;99.90
41471;DHT22;27211;51.220;5.308;2023-03-26T21:03:49;7.90;99.90
41471;DHT22;27211;51.220;5.308;2023-03-26T21:06:17;7.80;99.90
41471;DHT22;27211;51.220;5.308;2023-03-26T21:08:45;7.80;99.90
41471;DHT22;27211;51.220;5.308;2023-03-26T21:13:51;7.70;99.90
41471;DHT22;27211;51.220;5.308;2023-03-26T21:16:20;7.80;99.90
41471;DHT22;27211;51.220;5.308;2023-03-26T21:18:48;7.70;99.90
41471;DHT22;27211;51.220;5.308;2023-03-26T21:24:09;7.80;99.90
41471;DHT22;27211;51.220;5.308;2023-03-26T21:29:26;7.40;99.90
41471;DHT22;27211;51.220;5.308;2023-03-26T21:31:53;7.30;99.90
41471;DHT22;27211;51.220;5.308;2023-03-26T21:34:21;7.40;99.90
41471;DHT22;27211;51.220;5.308;2023-03-26T21:36:49;7.40;99.90
41471;DHT22;27211;51.220;5.308;2023-03-26T21:39:17;7.20;99.90
41471;DHT22;27211;51.220;5.308;2023-03-26T21:41:48;7.00;99.90
41471;DHT22;27211;51.220;5.308;2023-03-26T21:44:16;7.10;99.90
41471;DHT22;27211;51.220;5.308;2023-03-26T21:46:44;7.10;99.90
41471;DHT22;27211;51.220;5.308;2023-03-26T21:49:16;7.00;99.90
41471;DHT22;27211;51.220;5.308;2023-03-26T21:51:49;7.00;99.90
41471;DHT22;27211;51.220;5.308;2023-03-26T21:54:23;6.90;99.90
41471;DHT22;27211;51.220;5.308;2023-03-26T22:01:52;6.60;99.90
41471;DHT22;27211;51.220;5.308;2023-03-26T22:06:50;6.50;99.90
41471;DHT22;27211;51.220;5.308;2023-03-26T22:09:20;6.40;99.90
41471;DHT22;27211;51.220;5.308;2023-03-26T22:11:47;6.20;99.90
41471;DHT22;27211;51.220;5.308;2023-03-26T22:14:13;6.20;99.90
41471;DHT22;27211;51.220;5.308;2023-03-26T22:16:39;6.20;99.90
41471;DHT22;27211;51.220;5.308;2023-03-26T22:19:09;6.20;99.90
41471;DHT22;27211;51.220;5.308;2023-03-26T22:21:38;6.20;99.90
41471;DHT22;27211;51.220;5.308;2023-03-26T22:24:04;6.20;99.90
41471;DHT22;27211;51.220;5.308;2023-03-26T22:26:31;6.10;99.90
41471;DHT22;27211;51.220;5.308;2023-03-26T22:28:57;6.10;99.90
41471;DHT22;27211;51.220;5.308;2023-03-26T22:31:24;6.00;99.90
41471;DHT22;27211;51.220;5.308;2023-03-26T22:33:51;6.00;99.90
41471;DHT22;27211;51.220;5.308;2023-03-26T22:36:20;6.00;99.90
41471;DHT22;27211;51.220;5.308;2023-03-26T22:38:46;5.90;99.90
41471;DHT22;27211;51.220;5.308;2023-03-26T22:41:12;5.90;99.90
41471;DHT22;27211;51.220;5.308;2023-03-26T22:43:38;5.80;99.90
41471;DHT22;27211;51.220;5.308;2023-03-26T22:46:05;6.20;99.90
41471;DHT22;27211;51.220;5.308;2023-03-26T22:48:31;6.20;99.90
41471;DHT22;27211;51.220;5.308;2023-03-26T22:51:04;6.50;99.90
41471;DHT22;27211;51.220;5.308;2023-03-26T22:53:30;6.30;99.90
41471;DHT22;27211;51.220;5.308;2023-03-26T22:56:00;6.40;99.90
41471;DHT22;27211;51.220;5.308;2023-03-26T22:58:26;6.10;99.90
41471;DHT22;27211;51.220;5.308;2023-03-26T23:01:04;5.90;99.90
41471;DHT22;27211;51.220;5.308;2023-03-26T23:03:31;5.70;99.90
41471;DHT22;27211;51.220;5.308;2023-03-26T23:06:05;5.70;99.90
41471;DHT22;27211;51.220;5.308;2023-03-26T23:08:32;5.60;99.90
41471;DHT22;27211;51.220;5.308;2023-03-26T23:10:59;5.90;99.90
41471;DHT22;27211;51.220;5.308;2023-03-26T23:13:25;5.80;99.90
41471;DHT22;27211;51.220;5.308;2023-03-26T23:15:52;5.60;99.90
41471;DHT22;27211;51.220;5.308;2023-03-26T23:18:20;5.40;99.90
41471;DHT22;27211;51.220;5.308;2023-03-26T23:20:53;5.20;99.90
41471;DHT22;27211;51.220;5.308;2023-03-26T23:23:23;5.10;99.90
41471;DHT22;27211;51.220;5.308;2023-03-26T23:25:52;5.10;99.90
41471;DHT22;27211;51.220;5.308;2023-03-26T23:28:18;4.90;99.90
41471;DHT22;27211;51.220;5.308;2023-03-26T23:30:48;4.90;99.90
41471;DHT22;27211;51.220;5.308;2023-03-26T23:33:14;4.90;99.90
41471;DHT22;27211;51.220;5.308;2023-03-26T23:35:40;4.80;99.90
41471;DHT22;27211;51.220;5.308;2023-03-26T23:38:09;4.70;99.90
41471;DHT22;27211;51.220;5.308;2023-03-26T23:40:38;4.70;99.90
41471;DHT22;27211;51.220;5.308;2023-03-26T23:43:05;4.70;99.90
41471;DHT22;27211;51.220;5.308;2023-03-26T23:45:31;4.70;99.90
41471;DHT22;27211;51.220;5.308;2023-03-26T23:47:57;4.60;99.90
41471;DHT22;27211;51.220;5.308;2023-03-26T23:50:27;4.70;99.90
41471;DHT22;27211;51.220;5.308;2023-03-26T23:52:54;4.60;99.90
41471;DHT22;27211;51.220;5.308;2023-03-26T23:55:22;4.60;99.90
41471;DHT22;27211;51.220;5.308;2023-03-26T23:57:51;4.50;99.90
